sensor_id;sensor_type;location;lat;lon;timestamp;temperature;humidity
56162;DHT22;42045;52.986;6.014;2023-09-19T00:02:23;13.50;99.90
56162;DHT22;42045;52.986;6.014;2023-09-19T00:04:49;13.40;99.90
56162;DHT22;42045;52.986;6.014;2023-09-19T00:07:15;13.40;99.90
56162;DHT22;42045;52.986;6.014;2023-09-19T00:09:41;13.40;99.90
56162;DHT22;42045;52.986;6.014;2023-09-19T00:12:09;13.40;99.90
56162;DHT22;42045;52.986;6.014;2023-09-19T00:14:35;13.40;99.90
56162;DHT22;42045;52.986;6.014;2023-09-19T00:17:02;13.30;99.90
56162;DHT22;42045;52.986;6.014;2023-09-19T00:19:34;13.30;99.90
56162;DHT22;42045;52.986;6.014;2023-09-19T00:22:00;13.30;99.90
56162;DHT22;42045;52.986;6.014;2023-09-19T00:24:26;13.30;99.90
56162;DHT22;42045;52.986;6.014;2023-09-19T00:26:53;13.30;99.90
56162;DHT22;42045;52.986;6.014;2023-09-19T00:29:21;13.30;99.90
56162;DHT22;42045;52.986;6.014;2023-09-19T00:31:46;13.30;99.90
56162;DHT22;42045;52.986;6.014;2023-09-19T00:34:12;13.30;99.90
56162;DHT22;42045;52.986;6.014;2023-09-19T00:36:38;13.20;99.90
56162;DHT22;42045;52.986;6.014;2023-09-19T00:39:08;13.30;99.90
56162;DHT22;42045;52.986;6.014;2023-09-19T00:41:35;13.20;99.90
56162;DHT22;42045;52.986;6.014;2023-09-19T00:44:02;13.30;99.90
56162;DHT22;42045;52.986;6.014;2023-09-19T00:46:30;13.20;99.90
56162;DHT22;42045;52.986;6.014;2023-09-19T00:48:56;13.20;99.90
56162;DHT22;42045;52.986;6.014;2023-09-19T00:51:22;13.20;99.90
56162;DHT22;42045;52.986;6.014;2023-09-19T00:53:51;13.20;99.90
56162;DHT22;42045;52.986;6.014;2023-09-19T00:56:18;13.20;99.90
56162;DHT22;42045;52.986;6.014;2023-09-19T00:58:47;13.20;99.90
56162;DHT22;42045;52.986;6.014;2023-09-19T01:01:13;13.10;99.90
56162;DHT22;42045;52.986;6.014;2023-09-19T01:03:41;13.10;99.90
56162;DHT22;42045;52.986;6.014;2023-09-19T01:06:07;13.10;99.90
56162;DHT22;42045;52.986;6.014;2023-09-19T01:08:34;13.10;99.90
56162;DHT22;42045;52.986;6.014;2023-09-19T01:11:13;13.10;99.90
56162;DHT22;42045;52.986;6.014;2023-09-19T01:13:53;13.00;99.90
56162;DHT22;42045;52.986;6.014;2023-09-19T01:16:34;13.00;99.90
56162;DHT22;42045;52.986;6.014;2023-09-19T01:22:26;13.00;99.90
56162;DHT22;42045;52.986;6.014;2023-09-19T01:30:52;12.90;99.90
56162;DHT22;42045;52.986;6.014;2023-09-19T01:33:23;13.00;99.90
56162;DHT22;42045;52.986;6.014;2023-09-19T01:35:49;12.90;99.90
56162;DHT22;42045;52.986;6.014;2023-09-19T01:38:16;12.90;99.90
56162;DHT22;42045;52.986;6.014;2023-09-19T01:40:43;12.90;99.90
56162;DHT22;42045;52.986;6.014;2023-09-19T01:45:51;13.00;99.90
56162;DHT22;42045;52.986;6.014;2023-09-19T01:48:41;13.00;99.90
56162;DHT22;42045;52.986;6.014;2023-09-19T01:51:14;13.00;99.90
56162;DHT22;42045;52.986;6.014;2023-09-19T01:56:36;13.00;99.90
56162;DHT22;42045;52.986;6.014;2023-09-19T01:59:10;13.00;99.90
56162;DHT22;42045;52.986;6.014;2023-09-19T02:01:38;13.00;99.90
56162;DHT22;42045;52.986;6.014;2023-09-19T02:04:05;13.10;99.90
56162;DHT22;42045;52.986;6.014;2023-09-19T02:06:32;13.10;99.90
56162;DHT22;42045;52.986;6.014;2023-09-19T02:08:57;13.10;99.90
56162;DHT22;42045;52.986;6.014;2023-09-19T02:11:24;13.10;99.90
56162;DHT22;42045;52.986;6.014;2023-09-19T02:13:50;13.20;99.90
56162;DHT22;42045;52.986;6.014;2023-09-19T02:16:19;13.10;99.90
56162;DHT22;42045;52.986;6.014;2023-09-19T02:18:49;13.20;99.90
56162;DHT22;42045;52.986;6.014;2023-09-19T02:21:15;13.10;99.90
56162;DHT22;42045;52.986;6.014;2023-09-19T02:23:43;13.10;99.90
56162;DHT22;42045;52.986;6.014;2023-09-19T02:26:09;13.10;99.90
56162;DHT22;42045;52.986;6.014;2023-09-19T02:28:34;13.10;99.90
56162;DHT22;42045;52.986;6.014;2023-09-19T02:31:01;13.20;99.90
56162;DHT22;42045;52.986;6.014;2023-09-19T02:33:27;13.20;99.90
56162;DHT22;42045;52.986;6.014;2023-09-19T02:35:57;13.20;99.90
56162;DHT22;42045;52.986;6.014;2023-09-19T02:38:23;13.30;99.90
56162;DHT22;42045;52.986;6.014;2023-09-19T02:40:50;13.30;99.90
56162;DHT22;42045;52.986;6.014;2023-09-19T02:43:16;13.30;99.90
56162;DHT22;42045;52.986;6.014;2023-09-19T02:45:42;13.30;99.90
56162;DHT22;42045;52.986;6.014;2023-09-19T02:48:08;13.30;99.90
56162;DHT22;42045;52.986;6.014;2023-09-19T02:50:33;13.30;99.90
56162;DHT22;42045;52.986;6.014;2023-09-19T02:52:59;13.20;99.90
56162;DHT22;42045;52.986;6.014;2023-09-19T02:55:25;13.20;99.90
56162;DHT22;42045;52.986;6.014;2023-09-19T02:57:53;13.10;99.90
56162;DHT22;42045;52.986;6.014;2023-09-19T03:00:22;13.10;99.90
56162;DHT22;42045;52.986;6.014;2023-09-19T03:02:50;13.10;99.90
56162;DHT22;42045;52.986;6.014;2023-09-19T03:05:15;13.00;99.90
56162;DHT22;42045;52.986;6.014;2023-09-19T03:07:41;13.10;99.90
56162;DHT22;42045;52.986;6.014;2023-09-19T03:10:09;13.00;99.90
56162;DHT22;42045;52.986;6.014;2023-09-19T03:12:35;13.00;99.90
56162;DHT22;42045;52.986;6.014;2023-09-19T03:15:01;13.00;99.90
56162;DHT22;42045;52.986;6.014;2023-09-19T03:17:27;13.00;99.90
56162;DHT22;42045;52.986;6.014;2023-09-19T03:19:53;13.00;99.90
56162;DHT22;42045;52.986;6.014;2023-09-19T03:22:19;12.90;99.90
56162;DHT22;42045;52.986;6.014;2023-09-19T03:24:45;13.00;99.90
56162;DHT22;42045;52.986;6.014;2023-09-19T03:27:11;13.00;99.90
56162;DHT22;42045;52.986;6.014;2023-09-19T03:29:39;13.00;99.90
56162;DHT22;42045;52.986;6.014;2023-09-19T03:32:05;13.00;99.90
56162;DHT22;42045;52.986;6.014;2023-09-19T03:34:31;13.10;99.90
56162;DHT22;42045;52.986;6.014;2023-09-19T03:36:56;13.20;99.90
56162;DHT22;42045;52.986;6.014;2023-09-19T03:39:22;13.20;99.90
56162;DHT22;42045;52.986;6.014;2023-09-19T03:41:48;13.30;99.90
56162;DHT22;42045;52.986;6.014;2023-09-19T03:44:15;13.30;99.90
56162;DHT22;42045;52.986;6.014;2023-09-19T03:46:40;13.30;99.90
56162;DHT22;42045;52.986;6.014;2023-09-19T03:49:06;13.40;99.90
56162;DHT22;42045;52.986;6.014;2023-09-19T03:51:31;13.40;99.90
56162;DHT22;42045;52.986;6.014;2023-09-19T03:53:59;13.50;99.90
56162;DHT22;42045;52.986;6.014;2023-09-19T03:56:25;13.50;99.90
56162;DHT22;42045;52.986;6.014;2023-09-19T03:58:51;13.50;99.90
56162;DHT22;42045;52.986;6.014;2023-09-19T04:01:16;13.50;99.90
56162;DHT22;42045;52.986;6.014;2023-09-19T04:03:43;13.50;99.90
56162;DHT22;42045;52.986;6.014;2023-09-19T04:06:16;13.50;99.90
56162;DHT22;42045;52.986;6.014;2023-09-19T04:08:42;13.50;99.90
56162;DHT22;42045;52.986;6.014;2023-09-19T04:11:09;13.50;99.90
56162;DHT22;42045;52.986;6.014;2023-09-19T04:13:36;13.50;99.90
56162;DHT22;42045;52.986;6.014;2023-09-19T04:16:02;13.40;99.90
56162;DHT22;42045;52.986;6.014;2023-09-19T04:18:29;13.40;99.90
56162;DHT22;42045;52.986;6.014;2023-09-19T04:20:58;13.40;99.90
56162;DHT22;42045;52.986;6.014;2023-09-19T04:23:23;13.40;99.90
56162;DHT22;42045;52.986;6.014;2023-09-19T04:25:49;13.40;99.90
56162;DHT22;42045;52.986;6.014;2023-09-19T04:28:15;13.30;99.90
56162;DHT22;42045;52.986;6.014;2023-09-19T04:30:41;13.30;99.90
56162;DHT22;42045;52.986;6.014;2023-09-19T04:33:07;13.30;99.90
56162;DHT22;42045;52.986;6.014;2023-09-19T04:35:33;13.30;99.90
56162;DHT22;42045;52.986;6.014;2023-09-19T04:37:59;13.30;99.90
56162;DHT22;42045;52.986;6.014;2023-09-19T04:40:24;13.30;99.90
56162;DHT22;42045;52.986;6.014;2023-09-19T04:42:56;13.30;99.90
56162;DHT22;42045;52.986;6.014;2023-09-19T04:45:22;13.30;99.90
56162;DHT22;42045;52.986;6.014;2023-09-19T04:47:48;13.30;99.90
56162;DHT22;42045;52.986;6.014;2023-09-19T04:50:14;13.30;99.90
56162;DHT22;42045;52.986;6.014;2023-09-19T04:52:40;13.30;99.90
56162;DHT22;42045;52.986;6.014;2023-09-19T04:55:09;13.30;99.90
56162;DHT22;42045;52.986;6.014;2023-09-19T04:57:35;13.30;99.90
56162;DHT22;42045;52.986;6.014;2023-09-19T05:00:02;13.30;99.90
56162;DHT22;42045;52.986;6.014;2023-09-19T05:02:32;13.30;99.90
56162;DHT22;42045;52.986;6.014;2023-09-19T05:05:00;13.30;99.90
56162;DHT22;42045;52.986;6.014;2023-09-19T05:07:25;13.30;99.90
56162;DHT22;42045;52.986;6.014;2023-09-19T05:09:51;13.30;99.90
56162;DHT22;42045;52.986;6.014;2023-09-19T05:12:17;13.30;99.90
56162;DHT22;42045;52.986;6.014;2023-09-19T05:14:45;13.30;99.90
56162;DHT22;42045;52.986;6.014;2023-09-19T05:17:10;13.40;99.90
56162;DHT22;42045;52.986;6.014;2023-09-19T05:19:36;13.40;99.90
56162;DHT22;42045;52.986;6.014;2023-09-19T05:22:02;13.40;99.90
56162;DHT22;42045;52.986;6.014;2023-09-19T05:24:29;13.50;99.90
56162;DHT22;42045;52.986;6.014;2023-09-19T05:26:56;13.50;99.90
56162;DHT22;42045;52.986;6.014;2023-09-19T05:29:22;13.50;99.90
56162;DHT22;42045;52.986;6.014;2023-09-19T05:31:48;13.60;99.90
56162;DHT22;42045;52.986;6.014;2023-09-19T05:34:15;13.50;99.90
56162;DHT22;42045;52.986;6.014;2023-09-19T05:36:40;13.50;99.90
56162;DHT22;42045;52.986;6.014;2023-09-19T05:39:07;13.60;99.90
56162;DHT22;42045;52.986;6.014;2023-09-19T05:41:35;13.60;99.90
56162;DHT22;42045;52.986;6.014;2023-09-19T05:44:03;13.60;99.90
56162;DHT22;42045;52.986;6.014;2023-09-19T05:46:28;13.60;99.90
56162;DHT22;42045;52.986;6.014;2023-09-19T05:48:55;13.60;99.90
56162;DHT22;42045;52.986;6.014;2023-09-19T05:51:24;13.70;99.90
56162;DHT22;42045;52.986;6.014;2023-09-19T05:53:50;13.70;99.90
56162;DHT22;42045;52.986;6.014;2023-09-19T05:56:17;13.70;99.90
56162;DHT22;42045;52.986;6.014;2023-09-19T05:58:44;13.70;99.90
56162;DHT22;42045;52.986;6.014;2023-09-19T06:01:10;13.80;99.90
56162;DHT22;42045;52.986;6.014;2023-09-19T06:03:35;13.80;99.90
56162;DHT22;42045;52.986;6.014;2023-09-19T06:06:02;13.90;99.90
56162;DHT22;42045;52.986;6.014;2023-09-19T06:08:28;14.00;99.90
56162;DHT22;42045;52.986;6.014;2023-09-19T06:10:54;14.10;99.90
56162;DHT22;42045;52.986;6.014;2023-09-19T06:13:19;14.30;99.90
56162;DHT22;42045;52.986;6.014;2023-09-19T06:15:46;14.50;99.90
56162;DHT22;42045;52.986;6.014;2023-09-19T06:18:15;15.00;99.90
56162;DHT22;42045;52.986;6.014;2023-09-19T06:20:48;15.80;99.90
56162;DHT22;42045;52.986;6.014;2023-09-19T06:23:16;16.40;99.90
56162;DHT22;42045;52.986;6.014;2023-09-19T06:25:43;16.70;99.90
56162;DHT22;42045;52.986;6.014;2023-09-19T06:28:09;16.50;99.90
56162;DHT22;42045;52.986;6.014;2023-09-19T06:30:38;16.30;99.90
56162;DHT22;42045;52.986;6.014;2023-09-19T06:33:05;16.00;99.90
56162;DHT22;42045;52.986;6.014;2023-09-19T06:35:33;15.70;99.90
56162;DHT22;42045;52.986;6.014;2023-09-19T06:38:02;15.50;99.90
56162;DHT22;42045;52.986;6.014;2023-09-19T06:40:28;15.70;99.90
56162;DHT22;42045;52.986;6.014;2023-09-19T06:42:56;15.80;99.90
56162;DHT22;42045;52.986;6.014;2023-09-19T06:45:23;15.90;99.90
56162;DHT22;42045;52.986;6.014;2023-09-19T06:47:52;16.00;99.90
56162;DHT22;42045;52.986;6.014;2023-09-19T06:50:22;16.20;99.90
56162;DHT22;42045;52.986;6.014;2023-09-19T06:52:53;16.40;99.90
56162;DHT22;42045;52.986;6.014;2023-09-19T06:55:20;16.70;99.90
56162;DHT22;42045;52.986;6.014;2023-09-19T06:57:49;16.90;99.90
56162;DHT22;42045;52.986;6.014;2023-09-19T07:00:15;17.00;99.90
56162;DHT22;42045;52.986;6.014;2023-09-19T07:02:42;16.80;99.90
56162;DHT22;42045;52.986;6.014;2023-09-19T07:05:07;16.60;99.90
56162;DHT22;42045;52.986;6.014;2023-09-19T07:07:33;16.40;99.90
56162;DHT22;42045;52.986;6.014;2023-09-19T07:10:03;16.30;99.90
56162;DHT22;42045;52.986;6.014;2023-09-19T07:12:31;16.00;99.90
56162;DHT22;42045;52.986;6.014;2023-09-19T07:14:58;15.90;99.90
56162;DHT22;42045;52.986;6.014;2023-09-19T07:17:24;15.80;99.90
56162;DHT22;42045;52.986;6.014;2023-09-19T07:19:49;15.90;99.90
56162;DHT22;42045;52.986;6.014;2023-09-19T07:22:16;15.90;99.90
56162;DHT22;42045;52.986;6.014;2023-09-19T07:24:41;15.90;99.90
56162;DHT22;42045;52.986;6.014;2023-09-19T07:27:07;15.80;99.90
56162;DHT22;42045;52.986;6.014;2023-09-19T07:29:34;15.70;99.90
56162;DHT22;42045;52.986;6.014;2023-09-19T07:32:00;15.70;99.90
56162;DHT22;42045;52.986;6.014;2023-09-19T07:34:25;15.70;99.90
56162;DHT22;42045;52.986;6.014;2023-09-19T07:36:51;15.70;99.90
56162;DHT22;42045;52.986;6.014;2023-09-19T07:39:17;15.50;99.90
56162;DHT22;42045;52.986;6.014;2023-09-19T07:41:42;15.30;99.90
56162;DHT22;42045;52.986;6.014;2023-09-19T07:44:08;15.20;99.90
56162;DHT22;42045;52.986;6.014;2023-09-19T07:46:35;15.20;99.90
56162;DHT22;42045;52.986;6.014;2023-09-19T07:49:01;15.40;99.90
56162;DHT22;42045;52.986;6.014;2023-09-19T07:51:27;15.40;99.90
56162;DHT22;42045;52.986;6.014;2023-09-19T07:53:53;15.30;99.90
56162;DHT22;42045;52.986;6.014;2023-09-19T07:56:23;15.20;99.90
56162;DHT22;42045;52.986;6.014;2023-09-19T07:58:48;15.10;99.90
56162;DHT22;42045;52.986;6.014;2023-09-19T08:01:14;15.10;99.90
56162;DHT22;42045;52.986;6.014;2023-09-19T08:03:41;15.30;99.90
56162;DHT22;42045;52.986;6.014;2023-09-19T08:06:09;15.30;99.90
56162;DHT22;42045;52.986;6.014;2023-09-19T08:08:34;15.40;99.90
56162;DHT22;42045;52.986;6.014;2023-09-19T08:11:06;15.30;99.90
56162;DHT22;42045;52.986;6.014;2023-09-19T08:13:39;15.60;99.90
56162;DHT22;42045;52.986;6.014;2023-09-19T08:16:17;15.80;99.90
56162;DHT22;42045;52.986;6.014;2023-09-19T08:18:47;15.80;99.90
56162;DHT22;42045;52.986;6.014;2023-09-19T08:21:13;15.70;99.90
56162;DHT22;42045;52.986;6.014;2023-09-19T08:23:41;15.80;99.90
56162;DHT22;42045;52.986;6.014;2023-09-19T08:26:07;15.70;99.90
56162;DHT22;42045;52.986;6.014;2023-09-19T08:28:37;15.60;99.90
56162;DHT22;42045;52.986;6.014;2023-09-19T08:31:07;15.70;99.90
56162;DHT22;42045;52.986;6.014;2023-09-19T08:33:35;15.80;99.90
56162;DHT22;42045;52.986;6.014;2023-09-19T08:36:02;15.90;99.90
56162;DHT22;42045;52.986;6.014;2023-09-19T08:38:31;16.00;99.90
56162;DHT22;42045;52.986;6.014;2023-09-19T08:40:59;16.00;99.90
56162;DHT22;42045;52.986;6.014;2023-09-19T08:43:25;16.20;99.90
56162;DHT22;42045;52.986;6.014;2023-09-19T08:45:58;16.40;99.90
56162;DHT22;42045;52.986;6.014;2023-09-19T08:48:29;16.50;99.90
56162;DHT22;42045;52.986;6.014;2023-09-19T08:51:06;16.60;99.90
56162;DHT22;42045;52.986;6.014;2023-09-19T08:53:54;16.60;99.90
56162;DHT22;42045;52.986;6.014;2023-09-19T08:56:22;16.60;99.90
56162;DHT22;42045;52.986;6.014;2023-09-19T08:58:53;16.60;99.90
56162;DHT22;42045;52.986;6.014;2023-09-19T09:01:21;16.60;99.90
56162;DHT22;42045;52.986;6.014;2023-09-19T09:03:54;16.60;99.90
56162;DHT22;42045;52.986;6.014;2023-09-19T09:06:24;16.60;99.90
56162;DHT22;42045;52.986;6.014;2023-09-19T09:08:51;16.70;99.90
56162;DHT22;42045;52.986;6.014;2023-09-19T09:11:18;16.80;99.90
56162;DHT22;42045;52.986;6.014;2023-09-19T09:13:44;16.90;99.90
56162;DHT22;42045;52.986;6.014;2023-09-19T09:16:11;16.80;99.90
56162;DHT22;42045;52.986;6.014;2023-09-19T09:18:38;16.80;99.90
56162;DHT22;42045;52.986;6.014;2023-09-19T09:21:04;16.80;99.90
56162;DHT22;42045;52.986;6.014;2023-09-19T09:23:30;16.70;99.90
56162;DHT22;42045;52.986;6.014;2023-09-19T09:25:58;16.60;99.90
56162;DHT22;42045;52.986;6.014;2023-09-19T09:28:27;16.70;99.90
56162;DHT22;42045;52.986;6.014;2023-09-19T09:30:54;16.60;99.90
56162;DHT22;42045;52.986;6.014;2023-09-19T09:33:20;16.70;99.90
56162;DHT22;42045;52.986;6.014;2023-09-19T09:35:50;16.80;99.90
56162;DHT22;42045;52.986;6.014;2023-09-19T09:38:21;17.00;99.90
56162;DHT22;42045;52.986;6.014;2023-09-19T09:40:51;17.20;99.90
56162;DHT22;42045;52.986;6.014;2023-09-19T09:43:27;17.30;99.90
56162;DHT22;42045;52.986;6.014;2023-09-19T09:46:07;17.50;99.90
56162;DHT22;42045;52.986;6.014;2023-09-19T09:52:18;17.90;99.90
56162;DHT22;42045;52.986;6.014;2023-09-19T09:55:19;17.80;99.90
56162;DHT22;42045;52.986;6.014;2023-09-19T09:57:45;17.60;99.90
56162;DHT22;42045;52.986;6.014;2023-09-19T10:00:11;17.50;99.90
56162;DHT22;42045;52.986;6.014;2023-09-19T10:02:37;17.60;99.90
56162;DHT22;42045;52.986;6.014;2023-09-19T10:05:19;17.70;99.90
56162;DHT22;42045;52.986;6.014;2023-09-19T10:07:54;17.80;99.90
56162;DHT22;42045;52.986;6.014;2023-09-19T10:10:37;17.80;99.90
56162;DHT22;42045;52.986;6.014;2023-09-19T10:13:13;17.90;99.90
56162;DHT22;42045;52.986;6.014;2023-09-19T10:15:47;17.90;99.90
56162;DHT22;42045;52.986;6.014;2023-09-19T10:18:21;18.00;99.90
56162;DHT22;42045;52.986;6.014;2023-09-19T10:20:48;18.10;99.90
56162;DHT22;42045;52.986;6.014;2023-09-19T10:23:17;18.10;99.90
56162;DHT22;42045;52.986;6.014;2023-09-19T10:25:48;18.10;99.90
56162;DHT22;42045;52.986;6.014;2023-09-19T10:28:16;18.10;99.90
56162;DHT22;42045;52.986;6.014;2023-09-19T10:30:47;18.10;99.90
56162;DHT22;42045;52.986;6.014;2023-09-19T10:33:24;18.10;99.90
56162;DHT22;42045;52.986;6.014;2023-09-19T10:35:57;17.90;99.90
56162;DHT22;42045;52.986;6.014;2023-09-19T10:38:26;17.80;99.90
56162;DHT22;42045;52.986;6.014;2023-09-19T10:40:55;17.70;99.90
56162;DHT22;42045;52.986;6.014;2023-09-19T10:43:30;17.50;99.90
56162;DHT22;42045;52.986;6.014;2023-09-19T10:46:05;17.40;99.90
56162;DHT22;42045;52.986;6.014;2023-09-19T10:48:32;17.50;99.90
56162;DHT22;42045;52.986;6.014;2023-09-19T10:51:21;17.50;99.90
56162;DHT22;42045;52.986;6.014;2023-09-19T10:53:54;17.40;99.90
56162;DHT22;42045;52.986;6.014;2023-09-19T10:56:32;17.50;99.90
56162;DHT22;42045;52.986;6.014;2023-09-19T10:59:12;17.30;99.90
56162;DHT22;42045;52.986;6.014;2023-09-19T11:01:46;17.20;99.90
56162;DHT22;42045;52.986;6.014;2023-09-19T11:12:12;17.70;99.90
56162;DHT22;42045;52.986;6.014;2023-09-19T11:14:40;17.90;99.90
56162;DHT22;42045;52.986;6.014;2023-09-19T11:30:38;17.70;99.90
56162;DHT22;42045;52.986;6.014;2023-09-19T11:36:02;17.80;99.90
56162;DHT22;42045;52.986;6.014;2023-09-19T11:46:33;17.50;99.90
56162;DHT22;42045;52.986;6.014;2023-09-19T11:49:06;17.50;99.90
56162;DHT22;42045;52.986;6.014;2023-09-19T11:51:41;17.40;99.90
56162;DHT22;42045;52.986;6.014;2023-09-19T11:54:12;17.40;99.90
56162;DHT22;42045;52.986;6.014;2023-09-19T11:56:50;17.40;99.90
56162;DHT22;42045;52.986;6.014;2023-09-19T11:59:25;17.30;99.90
56162;DHT22;42045;52.986;6.014;2023-09-19T12:01:58;17.20;99.90
56162;DHT22;42045;52.986;6.014;2023-09-19T12:04:44;17.20;99.90
56162;DHT22;42045;52.986;6.014;2023-09-19T12:07:15;17.20;99.90
56162;DHT22;42045;52.986;6.014;2023-09-19T12:09:42;17.20;99.90
56162;DHT22;42045;52.986;6.014;2023-09-19T12:12:39;17.20;99.90
56162;DHT22;42045;52.986;6.014;2023-09-19T12:15:07;17.20;99.90
56162;DHT22;42045;52.986;6.014;2023-09-19T12:17:37;17.30;99.90
56162;DHT22;42045;52.986;6.014;2023-09-19T12:20:05;17.40;99.90
56162;DHT22;42045;52.986;6.014;2023-09-19T12:22:45;17.60;99.90
56162;DHT22;42045;52.986;6.014;2023-09-19T12:25:12;17.70;99.90
56162;DHT22;42045;52.986;6.014;2023-09-19T12:27:48;17.80;99.90
56162;DHT22;42045;52.986;6.014;2023-09-19T12:30:27;17.90;99.90
56162;DHT22;42045;52.986;6.014;2023-09-19T12:32:53;17.80;99.90
56162;DHT22;42045;52.986;6.014;2023-09-19T12:35:31;17.80;99.90
56162;DHT22;42045;52.986;6.014;2023-09-19T12:38:01;17.70;99.90
56162;DHT22;42045;52.986;6.014;2023-09-19T12:40:26;17.70;99.90
56162;DHT22;42045;52.986;6.014;2023-09-19T12:42:55;17.70;99.90
56162;DHT22;42045;52.986;6.014;2023-09-19T12:45:21;17.60;99.90
56162;DHT22;42045;52.986;6.014;2023-09-19T12:48:18;17.60;99.90
56162;DHT22;42045;52.986;6.014;2023-09-19T12:51:10;17.60;99.90
56162;DHT22;42045;52.986;6.014;2023-09-19T12:56:08;17.60;99.90
56162;DHT22;42045;52.986;6.014;2023-09-19T12:58:54;17.60;99.90
56162;DHT22;42045;52.986;6.014;2023-09-19T13:01:21;17.50;99.90
56162;DHT22;42045;52.986;6.014;2023-09-19T13:06:52;17.50;99.90
56162;DHT22;42045;52.986;6.014;2023-09-19T13:09:19;17.60;99.90
56162;DHT22;42045;52.986;6.014;2023-09-19T13:11:50;17.60;99.90
56162;DHT22;42045;52.986;6.014;2023-09-19T13:17:04;17.60;99.90
56162;DHT22;42045;52.986;6.014;2023-09-19T13:22:38;17.50;99.90
56162;DHT22;42045;52.986;6.014;2023-09-19T13:25:10;17.50;99.90
56162;DHT22;42045;52.986;6.014;2023-09-19T13:27:54;17.60;99.90
56162;DHT22;42045;52.986;6.014;2023-09-19T13:30:23;17.60;99.90
56162;DHT22;42045;52.986;6.014;2023-09-19T13:32:50;17.70;99.90
56162;DHT22;42045;52.986;6.014;2023-09-19T13:35:16;17.70;99.90
56162;DHT22;42045;52.986;6.014;2023-09-19T13:37:43;17.60;99.90
56162;DHT22;42045;52.986;6.014;2023-09-19T13:40:14;17.70;99.90
56162;DHT22;42045;52.986;6.014;2023-09-19T13:42:41;17.70;99.90
56162;DHT22;42045;52.986;6.014;2023-09-19T13:45:08;17.80;99.90
56162;DHT22;42045;52.986;6.014;2023-09-19T13:47:37;17.80;99.90
56162;DHT22;42045;52.986;6.014;2023-09-19T13:50:04;17.80;99.90
56162;DHT22;42045;52.986;6.014;2023-09-19T13:52:31;17.80;99.90
56162;DHT22;42045;52.986;6.014;2023-09-19T13:54:57;17.80;99.90
56162;DHT22;42045;52.986;6.014;2023-09-19T13:57:24;17.80;99.90
56162;DHT22;42045;52.986;6.014;2023-09-19T13:59:50;17.80;99.90
56162;DHT22;42045;52.986;6.014;2023-09-19T14:02:17;17.70;99.90
56162;DHT22;42045;52.986;6.014;2023-09-19T14:04:44;17.70;99.90
56162;DHT22;42045;52.986;6.014;2023-09-19T14:07:10;17.60;99.90
56162;DHT22;42045;52.986;6.014;2023-09-19T14:09:37;17.60;99.90
56162;DHT22;42045;52.986;6.014;2023-09-19T14:12:03;17.70;99.90
56162;DHT22;42045;52.986;6.014;2023-09-19T14:14:29;17.60;99.90
56162;DHT22;42045;52.986;6.014;2023-09-19T14:16:54;17.60;99.90
56162;DHT22;42045;52.986;6.014;2023-09-19T14:19:20;17.60;99.90
56162;DHT22;42045;52.986;6.014;2023-09-19T14:21:46;17.70;99.90
56162;DHT22;42045;52.986;6.014;2023-09-19T14:24:17;17.70;99.90
56162;DHT22;42045;52.986;6.014;2023-09-19T14:26:45;17.70;99.90
56162;DHT22;42045;52.986;6.014;2023-09-19T14:29:10;17.70;99.90
56162;DHT22;42045;52.986;6.014;2023-09-19T14:31:38;17.70;99.90
56162;DHT22;42045;52.986;6.014;2023-09-19T14:34:05;17.60;99.90
56162;DHT22;42045;52.986;6.014;2023-09-19T14:36:31;17.60;99.90
56162;DHT22;42045;52.986;6.014;2023-09-19T14:38:57;17.60;99.90
56162;DHT22;42045;52.986;6.014;2023-09-19T14:41:23;17.60;99.90
56162;DHT22;42045;52.986;6.014;2023-09-19T14:43:51;17.50;99.90
56162;DHT22;42045;52.986;6.014;2023-09-19T14:46:17;17.50;99.90
56162;DHT22;42045;52.986;6.014;2023-09-19T14:48:44;17.40;99.90
56162;DHT22;42045;52.986;6.014;2023-09-19T14:51:13;17.40;99.90
56162;DHT22;42045;52.986;6.014;2023-09-19T14:53:39;17.30;99.90
56162;DHT22;42045;52.986;6.014;2023-09-19T14:56:06;17.30;99.90
56162;DHT22;42045;52.986;6.014;2023-09-19T14:58:33;17.20;99.90
56162;DHT22;42045;52.986;6.014;2023-09-19T15:01:03;17.20;99.90
56162;DHT22;42045;52.986;6.014;2023-09-19T15:03:30;17.10;99.90
56162;DHT22;42045;52.986;6.014;2023-09-19T15:06:13;17.10;99.90
56162;DHT22;42045;52.986;6.014;2023-09-19T15:08:46;17.00;99.90
56162;DHT22;42045;52.986;6.014;2023-09-19T15:11:18;17.00;99.90
56162;DHT22;42045;52.986;6.014;2023-09-19T15:13:46;17.00;99.90
56162;DHT22;42045;52.986;6.014;2023-09-19T15:16:12;16.90;99.90
56162;DHT22;42045;52.986;6.014;2023-09-19T15:18:42;16.90;99.90
56162;DHT22;42045;52.986;6.014;2023-09-19T15:21:10;16.80;99.90
56162;DHT22;42045;52.986;6.014;2023-09-19T15:23:37;16.80;99.90
56162;DHT22;42045;52.986;6.014;2023-09-19T15:26:07;16.70;99.90
56162;DHT22;42045;52.986;6.014;2023-09-19T15:28:34;16.70;99.90
56162;DHT22;42045;52.986;6.014;2023-09-19T15:31:07;16.60;99.90
56162;DHT22;42045;52.986;6.014;2023-09-19T15:33:34;16.60;99.90
56162;DHT22;42045;52.986;6.014;2023-09-19T15:36:13;16.50;99.90
56162;DHT22;42045;52.986;6.014;2023-09-19T15:39:05;16.50;99.90
56162;DHT22;42045;52.986;6.014;2023-09-19T15:41:33;16.40;99.90
56162;DHT22;42045;52.986;6.014;2023-09-19T15:44:00;16.40;99.90
56162;DHT22;42045;52.986;6.014;2023-09-19T15:46:27;16.30;99.90
56162;DHT22;42045;52.986;6.014;2023-09-19T15:48:54;16.30;99.90
56162;DHT22;42045;52.986;6.014;2023-09-19T15:51:20;16.30;99.90
56162;DHT22;42045;52.986;6.014;2023-09-19T15:53:52;16.30;99.90
56162;DHT22;42045;52.986;6.014;2023-09-19T15:56:19;16.20;99.90
56162;DHT22;42045;52.986;6.014;2023-09-19T15:58:50;16.20;99.90
56162;DHT22;42045;52.986;6.014;2023-09-19T16:01:16;16.10;99.90
56162;DHT22;42045;52.986;6.014;2023-09-19T16:03:49;16.20;99.90
56162;DHT22;42045;52.986;6.014;2023-09-19T16:06:18;16.10;99.90
56162;DHT22;42045;52.986;6.014;2023-09-19T16:08:46;16.00;99.90
56162;DHT22;42045;52.986;6.014;2023-09-19T16:11:12;16.00;99.90
56162;DHT22;42045;52.986;6.014;2023-09-19T16:13:39;15.90;99.90
56162;DHT22;42045;52.986;6.014;2023-09-19T16:16:07;15.90;99.90
56162;DHT22;42045;52.986;6.014;2023-09-19T16:18:34;15.90;99.90
56162;DHT22;42045;52.986;6.014;2023-09-19T16:21:03;15.80;99.90
56162;DHT22;42045;52.986;6.014;2023-09-19T16:23:29;15.80;99.90
56162;DHT22;42045;52.986;6.014;2023-09-19T16:26:05;15.70;99.90
56162;DHT22;42045;52.986;6.014;2023-09-19T16:28:32;15.70;99.90
56162;DHT22;42045;52.986;6.014;2023-09-19T16:31:00;15.70;99.90
56162;DHT22;42045;52.986;6.014;2023-09-19T16:33:27;15.60;99.90
56162;DHT22;42045;52.986;6.014;2023-09-19T16:35:53;15.60;99.90
56162;DHT22;42045;52.986;6.014;2023-09-19T16:38:19;15.60;99.90
56162;DHT22;42045;52.986;6.014;2023-09-19T16:40:55;15.60;99.90
56162;DHT22;42045;52.986;6.014;2023-09-19T16:43:22;15.60;99.90